Hovedside
METAR-TAF:

METAR-TAF

Lufthavner :

Harbin, Kina

Harbin Taiping internasjonale lufthavn

breddegrad: 45-45N, lengdegrad: 126-46E, høyde over havet: 143 m

Gjeldene værobservasjon

Denne rapporten ble laget for 33 minutter siden, klokken 18:00 UTC
Vind 4 kt fra Sør-sørøst
Temperatur 8°C
Luftfuktighet 39%
Trykk 1011 hPa
Sikt 10 km eller mer
ingen skyer under 1500 m og ingen bygeskyer

METAR: ZYHB 241800Z 16002MPS CAVOK 08/M05 Q1011 NOSIG

Tid: 02:33 (18:33 UTC)

Varsel

Denne rapporten ble laget for 4 timer og 24 minutter siden, klokken 14:09 UTC
Varsel gyldig fra 24. klokken 18 UTC til 25. klokken 18 UTC
Vind 8 kt fra Sør-sørvest
Sikt 10 km eller mer
ingen skyer under 1500 m og ingen bygeskyer

TAF: ZYHB 241409Z 2418/2518 21004MPS CAVOK TX26/2507Z TN09/2421Z

Værobservasjoner og værvarsel for over 4000 flyplasser (METAR- og TAF-rapporter).

Tilgjengelige stasjoner er representert av de røde og gule prikkene på kartet.

Hold musepekeren over prikken for å se navnet på stasjonen.

Klikk så for å se værobservasjoner og -varsler.

For å forandre kartet kan du klikke på den grønne knappen med svart kryss for å zoome inn, på den grønne knappen med strek for å zoome ut, eller på de grønne pilene for å se tilstøtende kart.


METAR-TAF: